Time;durP1;ratioP1;P1;durP2;ratioP2;P2;SDS_P1;SDS_P2;PMS_P1;PMS_P2;Temp;Humidity;BMP_temperature;BMP_pressure;BME280_temperature;BME280_humidity;BME280_pressure;Samples;Min_cycle;Max_cycle;Signal;HPM_P1;HPM_P2
2021/04/05 00:01:15;;;;;;;14.63;6.85;;;;;;;7.34;77.78;100549.25;4835364;29;20442;-76
2021/04/05 00:03:41;;;;;;;28.67;7.65;;;;;;;7.32;77.75;100551.38;4844429;29;20070;-76
2021/04/05 00:06:06;;;;;;;10.98;6.78;;;;;;;7.29;77.87;100549.97;4858969;29;20038;-76
2021/04/05 00:08:32;;;;;;;14.38;7.75;;;;;;;7.29;77.98;100538.28;4846419;29;20085;-76
2021/04/05 00:10:57;;;;;;;24.63;7.85;;;;;;;7.27;77.78;100537.66;4849244;29;20034;-77
2021/04/05 00:13:29;;;;;;;32.33;7.65;;;;;;;7.24;78.65;100524.56;4873412;29;20034;-75
2021/04/05 00:15:56;;;;;;;22.77;7.88;;;;;;;7.27;78.62;100534.94;4849837;29;20094;-76
2021/04/05 00:18:23;;;;;;;11.55;7.47;;;;;;;7.26;78.73;100527.88;4841599;29;20094;-76
2021/04/05 00:20:53;;;;;;;21.33;7.75;;;;;;;7.26;78.47;100528.69;4843078;29;20029;-76
2021/04/05 00:23:19;;;;;;;16.85;7.85;;;;;;;7.28;79.72;100531.16;4847608;29;20030;-76
2021/04/05 00:25:44;;;;;;;18.20;7.28;;;;;;;7.34;79.69;100535.63;4820953;29;20389;-75
2021/04/05 00:28:10;;;;;;;16.30;8.13;;;;;;;7.43;79.14;100528.75;4834211;29;20068;-76
2021/04/05 00:30:37;;;;;;;22.20;7.85;;;;;;;7.48;79.57;100528.84;4833790;29;20427;-75
2021/04/05 00:33:04;;;;;;;20.77;8.65;;;;;;;7.56;79.17;100526.81;4831000;29;20030;-76
2021/04/05 00:35:33;;;;;;;17.50;8.20;;;;;;;7.56;79.21;100527.63;4840281;29;20125;-76
2021/04/05 00:37:59;;;;;;;22.33;7.45;;;;;;;7.56;78.99;100526.81;4836309;29;20063;-76
2021/04/05 00:40:32;;;;;;;21.17;8.45;;;;;;;7.59;79.04;100515.44;4828364;29;20599;-71
2021/04/05 00:42:58;;;;;;;10.55;7.43;;;;;;;7.60;78.88;100511.66;4831941;29;20053;-72
2021/04/05 00:45:24;;;;;;;10.32;7.72;;;;;;;7.59;78.79;100518.16;4840911;29;20516;-71
2021/04/05 00:47:52;;;;;;;11.63;6.97;;;;;;;7.70;78.93;100517.28;4817910;29;20025;-71
2021/04/05 00:50:28;;;;;;;23.77;8.43;;;;;;;7.80;78.72;100512.00;4833151;29;20034;-72
2021/04/05 00:52:56;;;;;;;13.75;7.43;;;;;;;7.83;77.68;100500.63;4820384;29;20034;-70
2021/04/05 00:55:23;;;;;;;25.58;7.85;;;;;;;7.81;78.30;100494.63;4818508;29;20044;-71
2021/04/05 00:57:49;;;;;;;30.48;7.78;;;;;;;7.75;78.10;100490.13;4829521;29;20504;-72
2021/04/05 01:00:29;;;;;;;20.02;7.82;;;;;;;7.72;77.69;100501.50;4829852;29;20034;-73
2021/04/05 01:02:55;;;;;;;20.60;7.18;;;;;;;7.68;78.41;100495.75;4835827;29;20026;-71
2021/04/05 01:05:21;;;;;;;16.60;7.72;;;;;;;7.64;77.65;100491.03;4828521;29;20044;-71
2021/04/05 01:07:47;;;;;;;17.55;8.30;;;;;;;7.68;78.18;100489.47;4821288;29;20045;-71
2021/04/05 01:10:13;;;;;;;10.70;6.82;;;;;;;7.66;78.04;100486.16;4829575;29;20038;-71
2021/04/05 01:12:39;;;;;;;22.17;7.10;;;;;;;7.72;77.61;100492.53;4839800;29;20524;-71
2021/04/05 01:15:07;;;;;;;13.63;6.53;;;;;;;7.71;76.81;100491.72;4835704;29;20049;-74
2021/04/05 01:17:33;;;;;;;25.35;7.60;;;;;;;7.64;77.16;100486.41;4834191;29;20046;-72
2021/04/05 01:20:01;;;;;;;13.55;6.38;;;;;;;7.63;77.18;100470.34;4821095;29;20050;-72
2021/04/05 01:22:27;;;;;;;13.23;7.03;;;;;;;7.63;76.96;100470.34;4837214;29;20069;-71
2021/04/05 01:24:53;;;;;;;17.92;7.90;;;;;;;7.60;76.77;100463.47;4823115;29;20061;-71
2021/04/05 01:27:18;;;;;;;22.92;7.28;;;;;;;7.57;77.29;100460.44;4846041;29;20115;-71
2021/04/05 01:29:44;;;;;;;13.48;7.60;;;;;;;7.56;77.09;100458.78;4830492;29;20112;-72
2021/04/05 01:32:09;;;;;;;20.38;8.07;;;;;;;7.52;78.27;100466.63;4829674;29;20496;-71
2021/04/05 01:34:39;;;;;;;10.23;6.95;;;;;;;7.54;78.09;100453.56;4830658;29;20050;-71
2021/04/05 01:37:06;;;;;;;13.65;7.63;;;;;;;7.53;77.86;100446.47;4830593;29;20496;-71
2021/04/05 01:39:38;;;;;;;23.08;9.02;;;;;;;7.48;78.48;100444.50;4828946;29;20794;-73
2021/04/05 01:42:04;;;;;;;22.98;9.02;;;;;;;7.46;78.77;100434.91;4819975;29;20064;-73
2021/04/05 01:44:34;;;;;;;30.25;10.50;;;;;;;7.40;79.07;100409.50;4837617;29;20034;-72
2021/04/05 01:47:00;;;;;;;18.50;9.25;;;;;;;7.46;78.98;100414.00;4827937;29;20137;-72
2021/04/05 01:49:25;;;;;;;15.38;8.30;;;;;;;7.43;78.72;100409.03;4838043;29;20536;-72
2021/04/05 01:51:51;;;;;;;19.60;8.32;;;;;;;7.41;78.51;100413.88;4830818;29;20041;-73
2021/04/05 01:54:16;;;;;;;26.25;10.13;;;;;;;7.41;78.77;100413.88;4839701;29;20453;-72
2021/04/05 01:56:42;;;;;;;15.50;10.38;;;;;;;7.39;79.09;100407.88;4816603;29;20048;-72
2021/04/05 01:59:09;;;;;;;20.67;9.55;;;;;;;7.40;78.41;100406.78;4837195;29;20041;-71
2021/04/05 02:01:35;;;;;;;25.92;10.13;;;;;;;7.42;78.67;100409.28;4814217;29;20084;-71
2021/04/05 02:04:05;;;;;;;24.52;10.25;;;;;;;7.39;79.02;100397.00;4836122;29;20069;-71
2021/04/05 02:06:34;;;;;;;14.73;9.07;;;;;;;7.45;78.69;100409.63;4829555;29;20036;-71
2021/04/05 02:09:00;;;;;;;19.75;9.70;;;;;;;7.45;78.03;100403.34;4824382;29;20044;-70
2021/04/05 02:11:32;;;;;;;20.73;9.27;;;;;;;7.44;78.43;100388.09;4820742;29;20030;-71
2021/04/05 02:13:59;;;;;;;24.23;11.13;;;;;;;7.41;78.50;100394.84;4832731;29;20034;-71
2021/04/05 02:16:25;;;;;;;14.80;9.77;;;;;;;7.45;77.92;100387.84;4836791;29;20061;-71
2021/04/05 02:18:53;;;;;;;18.17;9.05;;;;;;;7.48;77.91;100383.81;4833965;29;20137;-71
2021/04/05 02:21:23;;;;;;;19.90;9.23;;;;;;;7.45;77.12;100382.41;4839628;29;20030;-71
2021/04/05 02:23:53;;;;;;;17.70;8.63;;;;;;;7.47;77.17;100387.59;4837122;29;20034;-70
2021/04/05 02:26:22;;;;;;;20.67;10.20;;;;;;;7.46;77.28;100373.19;4826479;29;20093;-72
2021/04/05 02:28:50;;;;;;;24.25;9.10;;;;;;;7.45;77.37;100373.44;4837304;29;20030;-71
2021/04/05 02:31:19;;;;;;;16.08;8.98;;;;;;;7.44;76.89;100371.78;4819757;29;20025;-71
2021/04/05 02:33:47;;;;;;;10.38;8.32;;;;;;;7.42;76.94;100363.84;4831661;29;20037;-72
2021/04/05 02:36:15;;;;;;;29.98;10.13;;;;;;;7.46;76.73;100359.56;4837444;29;20056;-72
2021/04/05 02:38:44;;;;;;;14.73;7.32;;;;;;;7.44;76.27;100358.97;4812069;29;20090;-72
2021/04/05 02:41:11;;;;;;;14.52;7.32;;;;;;;7.44;75.69;100361.69;4834067;29;20041;-72
2021/04/05 02:43:39;;;;;;;19.67;8.20;;;;;;;7.44;76.27;100366.31;4837803;29;20029;-73
2021/04/05 02:46:06;;;;;;;12.88;8.00;;;;;;;7.42;75.53;100358.41;4826562;29;20030;-74
2021/04/05 02:48:39;;;;;;;20.17;8.02;;;;;;;7.44;76.08;100366.31;4827169;29;20033;-75
2021/04/05 02:51:07;;;;;;;15.25;7.95;;;;;;;7.44;75.84;100367.16;4832257;29;20154;-74
2021/04/05 02:53:34;;;;;;;12.02;7.72;;;;;;;7.39;75.46;100360.78;4835336;29;20033;-74
2021/04/05 02:56:04;;;;;;;15.52;8.75;;;;;;;7.37;76.16;100349.34;4836475;29;20427;-74
2021/04/05 02:58:39;;;;;;;15.25;7.72;;;;;;;7.34;75.99;100334.31;4826266;29;20029;-73
2021/04/05 03:01:04;;;;;;;19.92;8.20;;;;;;;7.34;75.75;100334.31;4839164;29;20042;-74
2021/04/05 03:03:30;;;;;;;12.50;8.15;;;;;;;7.34;76.01;100331.59;4839981;29;20518;-74
2021/04/05 03:05:56;;;;;;;14.05;8.02;;;;;;;7.31;76.06;100334.81;4838468;29;20046;-74
2021/04/05 03:08:24;;;;;;;15.45;7.55;;;;;;;7.27;75.77;100322.78;4833573;29;20025;-73
2021/04/05 03:10:51;;;;;;;13.90;7.93;;;;;;;7.30;75.78;100319.56;4831194;29;20042;-74
2021/04/05 03:13:16;;;;;;;16.42;8.68;;;;;;;7.31;75.85;100329.38;4828801;29;20465;-75
2021/04/05 03:15:42;;;;;;;10.95;8.75;;;;;;;7.26;75.55;100327.41;4835533;29;20094;-75
2021/04/05 03:18:09;;;;;;;15.27;8.15;;;;;;;7.31;75.80;100332.09;4832399;29;20050;-75
2021/04/05 03:20:36;;;;;;;16.17;7.95;;;;;;;7.29;75.42;100334.25;4840966;29;20038;-74
2021/04/05 03:23:03;;;;;;;16.10;7.50;;;;;;;7.28;75.02;100332.59;4813299;29;20041;-73
2021/04/05 03:25:29;;;;;;;22.55;8.20;;;;;;;7.27;75.42;100325.50;4834671;29;20435;-74
2021/04/05 03:27:55;;;;;;;16.63;8.82;;;;;;;7.24;75.37;100339.59;4846243;29;20034;-73
2021/04/05 03:30:33;;;;;;;10.68;8.10;;;;;;;7.20;75.35;100342.00;4809956;29;20056;-73
2021/04/05 03:33:06;;;;;;;13.07;7.90;;;;;;;7.14;75.53;100335.63;4832889;29;20033;-72
2021/04/05 03:35:37;;;;;;;12.23;8.07;;;;;;;7.14;75.67;100335.63;4829748;29;20022;-74
2021/04/05 03:38:03;;;;;;;15.00;8.25;;;;;;;7.14;75.62;100341.09;4845431;29;20500;-71
2021/04/05 03:40:30;;;;;;;18.08;8.55;;;;;;;7.13;76.12;100328.53;4838912;29;20029;-72
2021/04/05 03:43:23;;;;;;;18.50;8.43;;;;;;;7.11;75.93;100319.81;4840514;29;20026;-72
2021/04/05 03:45:54;;;;;;;18.15;8.77;;;;;;;7.04;76.52;100319.16;4840719;29;20058;-74
2021/04/05 03:48:55;;;;;;;16.02;9.23;;;;;;;7.02;76.52;100315.84;4837819;29;20556;-73
2021/04/05 03:51:28;;;;;;;13.07;8.98;;;;;;;6.96;76.70;100316.81;4834310;29;20097;-73
2021/04/05 03:53:57;;;;;;;16.42;9.48;;;;;;;6.93;76.92;100323.56;4828068;29;20030;-74
2021/04/05 03:56:27;;;;;;;22.65;9.68;;;;;;;6.93;77.01;100326.28;4838498;29;20034;-74
2021/04/05 03:58:57;;;;;;;19.83;7.47;;;;;;;6.93;76.83;100323.56;4834291;29;20112;-73
2021/04/05 04:01:29;;;;;;;10.40;8.32;;;;;;;7.02;76.66;100331.34;4841789;29;20029;-74
2021/04/05 04:04:06;;;;;;;18.92;8.55;;;;;;;7.05;76.37;100320.78;4826654;29;20034;-74
2021/04/05 04:06:54;;;;;;;24.58;8.80;;;;;;;7.08;76.37;100320.31;4832014;29;20022;-74
2021/04/05 04:09:22;;;;;;;19.30;8.35;;;;;;;7.08;75.96;100325.75;4822378;29;20140;-74
2021/04/05 04:11:50;;;;;;;11.60;7.57;;;;;;;7.06;76.04;100341.47;4837024;29;20034;-73
2021/04/05 04:14:18;;;;;;;9.75;7.35;;;;;;;7.08;76.09;100342.06;4823359;29;20082;-75
2021/04/05 04:16:48;;;;;;;9.93;7.85;;;;;;;7.16;75.78;100333.50;4845099;29;20034;-74
2021/04/05 04:19:16;;;;;;;7.93;7.10;;;;;;;7.26;76.40;100332.03;4831008;29;20169;-74
2021/04/05 04:21:47;;;;;;;21.73;8.77;;;;;;;7.29;75.81;100323.38;4838810;29;20048;-73
2021/04/05 04:24:13;;;;;;;8.88;7.55;;;;;;;7.32;75.48;100333.75;4834247;29;20113;-74
2021/04/05 04:26:40;;;;;;;10.05;6.40;;;;;;;7.30;75.01;100333.16;4833504;29;20038;-74
2021/04/05 04:29:11;;;;;;;9.68;6.82;;;;;;;7.23;75.41;100327.06;4833685;29;20034;-75
2021/04/05 04:31:38;;;;;;;12.40;7.70;;;;;;;7.18;74.83;100318.84;4827406;29;20097;-74
2021/04/05 04:34:03;;;;;;;12.00;7.10;;;;;;;7.09;75.58;100318.41;4840721;29;20850;-75
2021/04/05 04:36:29;;;;;;;15.13;8.70;;;;;;;7.00;76.48;100312.56;4842075;29;20038;-74
2021/04/05 04:38:55;;;;;;;20.92;8.30;;;;;;;6.94;76.56;100314.34;4858430;29;20109;-75
2021/04/05 04:41:26;;;;;;;16.38;7.22;;;;;;;6.90;76.08;100307.75;4836390;29;20030;-76
2021/04/05 04:44:02;;;;;;;7.05;6.30;;;;;;;6.93;76.46;100314.59;4826883;29;20050;-74
2021/04/05 04:46:29;;;;;;;7.85;6.55;;;;;;;6.90;75.99;100312.38;4844824;29;20029;-74
2021/04/05 04:49:02;;;;;;;11.05;5.22;;;;;;;6.87;76.42;100310.13;4832576;29;20042;-74
2021/04/05 04:51:38;;;;;;;9.65;6.22;;;;;;;6.86;75.85;100316.63;4831474;29;20094;-75
2021/04/05 04:54:05;;;;;;;5.70;4.35;;;;;;;6.84;76.02;100302.47;4828267;29;20137;-74
2021/04/05 04:56:32;;;;;;;10.13;4.72;;;;;;;6.88;75.05;100306.34;4844776;29;20035;-74
2021/04/05 04:59:02;;;;;;;7.50;3.90;;;;;;;6.92;74.96;100299.34;4831245;29;20028;-73
2021/04/05 05:01:30;;;;;;;5.35;3.90;;;;;;;6.95;74.60;100302.41;4840111;29;20060;-72
2021/04/05 05:03:58;;;;;;;5.88;3.40;;;;;;;6.98;74.18;100287.50;4833902;29;20044;-73
2021/04/05 05:06:25;;;;;;;6.22;4.25;;;;;;;6.99;74.09;100294.56;4841548;29;20033;-73
2021/04/05 05:08:51;;;;;;;5.35;2.92;;;;;;;7.03;73.45;100286.78;4835174;29;20061;-73
2021/04/05 05:11:17;;;;;;;19.98;4.25;;;;;;;7.03;73.34;100284.88;4837545;29;20068;-74
2021/04/05 05:13:45;;;;;;;8.05;2.63;;;;;;;7.03;73.20;100293.03;4836682;29;20056;-74
2021/04/05 05:16:10;;;;;;;5.97;3.28;;;;;;;7.08;72.80;100295.84;4831208;29;20115;-73
2021/04/05 05:18:37;;;;;;;6.05;3.03;;;;;;;7.12;72.81;100305.13;4838609;29;20074;-71
2021/04/05 05:21:07;;;;;;;2.58;2.38;;;;;;;7.25;72.83;100314.06;4828188;29;20037;-73
2021/04/05 05:23:36;;;;;;;7.97;2.63;;;;;;;7.34;72.16;100318.00;4833157;29;20026;-71
2021/04/05 05:26:03;;;;;;;3.45;3.15;;;;;;;7.47;72.11;100314.94;4829254;29;20117;-73
2021/04/05 05:28:33;;;;;;;7.55;3.63;;;;;;;7.57;71.99;100310.75;4836962;29;20121;-72
2021/04/05 05:30:59;;;;;;;7.47;4.85;;;;;;;7.57;72.13;100305.31;4835937;29;20030;-71
2021/04/05 05:33:25;;;;;;;8.02;5.32;;;;;;;7.51;72.79;100307.13;4824616;29;20443;-71
2021/04/05 05:35:52;;;;;;;11.15;5.68;;;;;;;7.45;73.00;100319.81;4826180;29;20541;-72
2021/04/05 05:38:22;;;;;;;11.88;6.25;;;;;;;7.38;73.45;100324.59;4837007;29;20057;-71
2021/04/05 05:40:48;;;;;;;14.27;6.25;;;;;;;7.41;73.40;100335.00;4833159;29;20026;-72
2021/04/05 05:43:27;;;;;;;10.75;5.38;;;;;;;7.45;73.91;100341.59;4828161;29;20054;-73
2021/04/05 05:46:04;;;;;;;5.40;4.50;;;;;;;7.50;73.27;100336.25;4838001;29;20370;-72
2021/04/05 05:48:49;;;;;;;5.47;4.95;;;;;;;7.60;73.33;100337.47;4839745;29;20033;-71
2021/04/05 05:51:24;;;;;;;7.07;4.15;;;;;;;7.63;72.63;100336.97;4830377;29;20106;-71
2021/04/05 05:54:06;;;;;;;5.75;2.90;;;;;;;7.68;72.15;100326.16;4824705;29;20038;-72
2021/04/05 05:56:43;;;;;;;4.47;3.00;;;;;;;7.68;71.85;100317.97;4830717;29;20084;-72
2021/04/05 05:59:17;;;;;;;2.63;2.42;;;;;;;7.72;71.49;100323.78;4836126;29;20021;-73
2021/04/05 06:02:04;;;;;;;6.60;2.03;;;;;;;7.85;71.33;100331.56;4824406;29;20032;-72
2021/04/05 06:04:55;;;;;;;4.07;2.33;;;;;;;7.96;70.42;100335.28;4840922;29;20816;-72
2021/04/05 06:07:42;;;;;;;3.10;1.85;;;;;;;8.09;70.80;100345.81;4835310;29;20052;-72
2021/04/05 06:10:11;;;;;;;2.15;1.60;;;;;;;8.15;70.70;100357.63;4837149;29;20331;-71
2021/04/05 06:12:57;;;;;;;1.75;1.63;;;;;;;8.28;69.86;100380.91;4834877;29;20117;-72
2021/04/05 06:15:26;;;;;;;1.90;1.35;;;;;;;8.35;69.96;100387.00;4808411;29;20050;-71
2021/04/05 06:17:59;;;;;;;4.72;1.73;;;;;;;8.42;68.63;100386.84;4835634;29;20097;-73
2021/04/05 06:20:37;;;;;;;2.97;1.63;;;;;;;8.47;68.08;100397.81;4833862;29;20034;-73
2021/04/05 06:23:13;;;;;;;11.60;1.92;;;;;;;8.41;66.44;100386.03;4829014;29;20128;-73
2021/04/05 06:26:09;;;;;;;2.08;1.15;;;;;;;8.36;66.28;100405.81;4832984;29;20026;-74
2021/04/05 06:28:46;;;;;;;6.88;1.85;;;;;;;8.33;65.13;100430.03;4834566;29;20049;-72
2021/04/05 06:31:35;;;;;;;5.80;1.85;;;;;;;8.29;65.35;100415.25;4838737;29;20089;-72
2021/04/05 06:34:24;;;;;;;4.28;1.83;;;;;;;8.33;64.64;100427.31;4837535;29;20037;-74
2021/04/05 06:37:07;;;;;;;7.97;2.00;;;;;;;8.34;64.18;100437.16;4788678;29;20042;-71
2021/04/05 06:39:35;;;;;;;3.40;1.80;;;;;;;8.31;64.08;100435.75;4829744;29;20557;-73
2021/04/05 06:42:24;;;;;;;5.93;1.50;;;;;;;8.38;62.32;100435.53;4831966;29;20021;-73
2021/04/05 06:45:21;;;;;;;2.85;1.98;;;;;;;8.43;61.81;100438.34;4827587;29;20117;-73
2021/04/05 06:48:12;;;;;;;3.70;1.85;;;;;;;8.40;60.81;100427.97;4834902;29;20030;-72
2021/04/05 06:51:00;;;;;;;3.65;1.60;;;;;;;8.35;60.38;100436.06;4833149;29;20038;-71
2021/04/05 06:54:00;;;;;;;4.20;1.38;;;;;;;8.38;59.87;100436.41;4817673;29;20041;-71
2021/04/05 06:56:44;;;;;;;1.83;1.73;;;;;;;8.44;59.56;100431.88;4847827;29;20898;-73
2021/04/05 06:59:31;;;;;;;7.38;1.58;;;;;;;8.48;59.01;100446.63;4835660;29;20086;-71
2021/04/05 07:02:28;;;;;;;5.15;1.58;;;;;;;8.48;58.96;100446.63;4843240;29;20089;-71
2021/04/05 07:05:12;;;;;;;;;;;;;;;8.59;57.54;100465.88;4826316;29;20067;-73
2021/04/05 07:08:13;;;;;;;2.28;1.25;;;;;;;8.60;57.50;100475.66;4837919;29;20014;-73
2021/04/05 07:10:45;;;;;;;5.60;1.70;;;;;;;8.68;58.13;100476.06;4800267;29;20062;-73
2021/04/05 07:13:32;;;;;;;2.22;1.50;;;;;;;8.76;57.37;100472.09;4835060;29;20026;-72
2021/04/05 07:16:29;;;;;;;4.38;2.00;;;;;;;8.87;57.26;100471.13;4832171;29;20031;-73
2021/04/05 07:19:10;;;;;;;11.48;2.28;;;;;;;8.93;56.89;100468.47;4836687;29;20058;-71
2021/04/05 07:22:15;;;;;;;3.95;1.45;;;;;;;8.99;55.64;100472.91;4835118;29;20037;-73
2021/04/05 07:24:46;;;;;;;3.95;1.70;;;;;;;8.98;55.23;100482.16;4837004;29;20034;-71
2021/04/05 07:27:17;;;;;;;1.98;1.27;;;;;;;8.98;54.29;100471.25;4834153;29;20038;-73
2021/04/05 07:30:10;;;;;;;10.85;1.10;;;;;;;9.09;53.31;100478.50;4834697;29;20057;-72
2021/04/05 07:32:53;;;;;;;4.50;0.93;;;;;;;9.16;52.94;100489.22;4833146;29;20026;-71
2021/04/05 07:35:42;;;;;;;3.47;1.75;;;;;;;9.34;52.88;100496.22;4822520;29;20402;-74
2021/04/05 07:38:15;;;;;;;1.95;0.63;;;;;;;9.40;50.55;100495.19;4825715;29;20120;-71
2021/04/05 07:41:11;;;;;;;3.20;0.90;;;;;;;9.55;51.39;100503.56;4838962;29;20034;-71
2021/04/05 07:43:51;;;;;;;5.97;1.27;;;;;;;9.66;50.47;100509.94;4830876;29;20114;-72
2021/04/05 07:46:59;;;;;;;1.50;0.75;;;;;;;9.72;49.86;100491.69;4832513;29;20034;-72
2021/04/05 07:49:30;;;;;;;1.27;0.80;;;;;;;9.69;47.99;100498.50;4776956;30;20085;-73
2021/04/05 07:52:02;;;;;;;2.50;0.77;;;;;;;9.64;47.33;100501.19;4833991;29;20133;-72
2021/04/05 07:54:29;;;;;;;7.78;0.77;;;;;;;9.54;45.98;100506.56;4838327;29;20021;-74
2021/04/05 07:57:32;;;;;;;3.85;1.30;;;;;;;9.48;45.86;100505.66;4849323;29;20062;-74
2021/04/05 08:00:28;;;;;;;1.45;0.70;;;;;;;9.40;45.79;100506.13;4847071;29;20109;-73
2021/04/05 08:03:05;;;;;;;0.95;0.40;;;;;;;9.34;46.90;100512.59;4836185;29;20029;-74
2021/04/05 08:05:56;;;;;;;1.73;0.40;;;;;;;9.34;45.91;100513.41;4824354;29;20034;-74
2021/04/05 08:08:33;;;;;;;0.63;0.40;;;;;;;9.33;45.35;100506.34;4826865;29;20171;-72
2021/04/05 08:11:36;;;;;;;1.88;0.57;;;;;;;9.33;44.57;100508.22;4831625;29;20640;-71
2021/04/05 08:14:08;;;;;;;1.98;0.30;;;;;;;9.25;44.29;100510.31;4839069;29;20032;-70
2021/04/05 08:17:09;;;;;;;0.20;0.20;;;;;;;9.31;44.29;100518.56;4839205;29;20041;-71
2021/04/05 08:20:01;;;;;;;4.13;0.65;;;;;;;9.38;44.03;100530.13;4800140;29;20132;-71
2021/04/05 08:22:37;;;;;;;7.85;0.43;;;;;;;9.40;44.24;100528.78;4815157;29;20042;-70
2021/04/05 08:25:45;;;;;;;1.83;0.35;;;;;;;9.42;43.58;100528.53;4811293;29;20574;-70
2021/04/05 08:28:41;;;;;;;1.95;0.40;;;;;;;9.49;43.34;100537.34;4804374;29;20122;-71
2021/04/05 08:31:21;;;;;;;7.10;0.43;;;;;;;9.60;43.28;100543.75;4814553;29;20039;-71
2021/04/05 08:34:08;;;;;;;2.80;0.57;;;;;;;9.73;43.17;100543.31;4802683;29;21368;-70
2021/04/05 08:36:52;;;;;;;0.52;0.50;;;;;;;9.81;42.81;100552.97;4816720;29;20375;-70
2021/04/05 08:39:41;;;;;;;5.75;0.43;;;;;;;10.03;42.80;100550.19;4810119;29;20542;-71
2021/04/05 08:42:23;;;;;;;0.45;0.30;;;;;;;10.21;42.17;100548.97;4807046;29;20047;-70
2021/04/05 08:44:59;;;;;;;0.80;0.30;;;;;;;10.46;42.70;100553.03;4812865;29;20113;-71
2021/04/05 08:47:32;;;;;;;0.95;0.45;;;;;;;10.64;41.46;100560.81;4814458;29;20030;-72
2021/04/05 08:50:07;;;;;;;0.30;0.20;;;;;;;10.84;41.53;100551.09;4806392;29;20034;-70
2021/04/05 08:52:38;;;;;;;2.00;0.35;;;;;;;11.12;39.96;100565.47;4815844;29;20167;-70
2021/04/05 08:55:05;;;;;;;1.90;0.30;;;;;;;11.38;38.83;100560.09;4800986;29;20038;-71
2021/04/05 08:57:36;;;;;;;0.30;0.10;;;;;;;11.59;38.44;100563.72;4808247;29;20038;-70
2021/04/05 09:00:06;;;;;;;0.82;0.32;;;;;;;11.69;38.33;100577.44;4810349;29;20031;-71
2021/04/05 09:02:35;;;;;;;2.17;0.50;;;;;;;11.64;36.21;100564.56;4807259;29;20475;-70
2021/04/05 09:05:00;;;;;;;0.98;0.20;;;;;;;11.69;36.78;100563.75;4816436;29;20477;-70
2021/04/05 09:07:32;;;;;;;1.48;0.65;;;;;;;11.83;36.65;100583.25;4821260;29;20105;-71
2021/04/05 09:10:03;;;;;;;0.73;0.22;;;;;;;11.99;35.47;100581.41;4812412;29;20042;-71
2021/04/05 09:12:31;;;;;;;1.80;0.20;;;;;;;12.38;34.45;100584.44;4810780;29;20034;-70
2021/04/05 09:15:27;;;;;;;0.20;0.10;;;;;;;13.18;34.44;100582.09;4795675;29;20030;-71
2021/04/05 09:18:11;;;;;;;;;;;;;;;13.70;32.75;100594.56;4814634;29;20038;-72
2021/04/05 09:21:13;;;;;;;0.30;0.10;;;;;;;14.06;32.90;100591.59;4832427;29;19924;-72
2021/04/05 09:23:57;;;;;;;0.88;0.43;;;;;;;14.34;32.49;100591.94;4832359;29;20390;-70
2021/04/05 09:26:47;;;;;;;0.30;0.25;;;;;;;14.29;31.05;100591.97;4830131;29;20484;-73
2021/04/05 09:29:35;;;;;;;2.35;0.10;;;;;;;14.08;31.56;100603.13;4826721;29;20473;-72
2021/04/05 09:32:05;;;;;;;1.75;0.30;;;;;;;13.67;31.03;100611.63;4835480;29;20038;-69
2021/04/05 09:34:58;;;;;;;0.47;0.43;;;;;;;13.75;32.30;100597.25;4829675;29;20031;-70
2021/04/05 09:37:49;;;;;;;1.05;0.30;;;;;;;14.34;32.57;100602.94;4833188;29;20030;-73
2021/04/05 09:40:41;;;;;;;0.45;0.30;;;;;;;15.56;32.57;100614.97;4828359;29;20025;-72
2021/04/05 09:43:36;;;;;;;3.60;0.50;;;;;;;16.21;30.82;100609.69;4827544;29;20528;-71
2021/04/05 09:46:30;;;;;;;0.77;0.63;;;;;;;16.33;29.72;100613.91;4831116;29;20026;-74
2021/04/05 09:49:14;;;;;;;0.77;0.40;;;;;;;15.91;29.96;100610.94;4828644;29;20503;-71
2021/04/05 09:52:00;;;;;;;1.45;0.20;;;;;;;15.68;30.01;100615.34;4830372;29;20052;-72
2021/04/05 09:55:03;;;;;;;0.60;0.20;;;;;;;15.22;30.25;100613.19;4829449;29;20022;-72
2021/04/05 09:57:33;;;;;;;1.17;0.25;;;;;;;14.86;31.19;100619.84;4817330;29;20488;-74
2021/04/05 10:00:00;;;;;;;2.20;0.30;;;;;;;14.62;31.34;100617.06;4836446;29;20124;-72
2021/04/05 10:02:50;;;;;;;5.38;0.50;;;;;;;14.56;31.79;100623.66;4832513;29;20102;-72
2021/04/05 10:05:19;;;;;;;5.10;1.00;;;;;;;14.25;30.95;100629.41;4826426;29;20034;-71
2021/04/05 10:07:47;;;;;;;0.40;0.28;;;;;;;14.01;31.58;100626.56;4830160;29;20031;-72
2021/04/05 10:10:14;;;;;;;3.92;0.30;;;;;;;14.17;32.52;100639.09;4834244;29;20038;-71
2021/04/05 10:12:43;;;;;;;0.60;0.60;;;;;;;14.55;32.23;100638.56;4834655;29;20592;-72
2021/04/05 10:15:13;;;;;;;1.38;0.50;;;;;;;14.97;31.45;100637.94;4831304;29;20669;-71
2021/04/05 10:17:45;;;;;;;1.55;0.20;;;;;;;15.84;31.71;100635.31;4830682;29;20101;-72
2021/04/05 10:20:11;;;;;;;0.50;0.20;;;;;;;16.92;31.05;100641.94;4829516;29;20078;-70
2021/04/05 10:22:41;;;;;;;0.68;0.30;;;;;;;17.31;28.70;100646.19;4832238;29;20038;-71
2021/04/05 10:25:08;;;;;;;0.60;0.20;;;;;;;17.98;28.06;100636.56;4830846;29;20026;-72
2021/04/05 10:27:37;;;;;;;0.20;0.20;;;;;;;19.11;28.84;100642.09;4834145;29;20049;-71
2021/04/05 10:30:04;;;;;;;2.13;0.40;;;;;;;20.40;26.73;100636.41;4833395;29;20496;-70
2021/04/05 10:32:30;;;;;;;0.63;0.17;;;;;;;21.20;25.51;100645.41;4812983;29;20068;-70
2021/04/05 10:35:00;;;;;;;0.77;0.30;;;;;;;21.39;23.98;100645.84;4837224;29;20393;-71
2021/04/05 10:37:48;;;;;;;0.82;0.43;;;;;;;21.12;23.52;100638.75;4827721;29;20041;-73
2021/04/05 10:40:26;;;;;;;;;;;;;;;;;;;;;
2021/04/05 10:42:54;;;;;;;0.57;0.20;;;;;;;20.11;24.25;100634.28;4840634;29;20041;-75
2021/04/05 10:45:53;;;;;;;;;;;;;;;;;;;;;
2021/04/05 10:48:56;;;;;;;0.40;0.20;;;;;;;19.75;23.66;100627.00;4825665;29;20400;-79
2021/04/05 10:51:40;;;;;;;;;;;;;;;;;;;;;
2021/04/05 10:54:29;;;;;;;0.80;0.20;;;;;;;19.10;23.79;100651.59;4833363;29;20026;-74
2021/04/05 10:57:02;;;;;;;0.30;0.10;;;;;;;18.55;24.46;100647.13;4834752;29;20374;-73
2021/04/05 10:59:38;;;;;;;0.40;0.30;;;;;;;18.41;25.01;100663.81;4831647;29;20029;-72
2021/04/05 11:02:55;;;;;;;0.80;0.57;;;;;;;18.66;24.11;100659.59;4831675;29;20545;-75
2021/04/05 11:05:23;;;;;;;0.98;0.40;;;;;;;19.09;23.99;100660.22;4815498;29;20131;-75
2021/04/05 11:07:57;;;;;;;0.20;0.15;;;;;;;19.61;23.31;100643.78;4819246;29;20034;-74
2021/04/05 11:10:28;;;;;;;0.55;0.20;;;;;;;20.42;23.44;100654.72;4840389;29;20036;-73
2021/04/05 11:13:12;;;;;;;0.50;0.30;;;;;;;21.69;22.91;100668.13;4826298;29;20123;-76
2021/04/05 11:15:51;;;;;;;0.20;0.20;;;;;;;22.53;21.30;100666.59;4830893;29;20052;-78
2021/04/05 11:18:33;;;;;;;0.55;0.13;;;;;;;23.21;21.91;100671.84;4829690;29;20053;-74
2021/04/05 11:21:03;;;;;;;3.30;0.20;;;;;;;23.91;21.25;100657.00;4834319;29;20437;-74
2021/04/05 11:24:06;;;;;;;3.42;0.15;;;;;;;23.60;19.51;100674.34;4836955;29;20018;-74
2021/04/05 11:26:38;;;;;;;0.40;0.30;;;;;;;22.27;19.56;100670.41;4835322;29;20082;-74
2021/04/05 11:29:13;;;;;;;1.23;0.20;;;;;;;21.03;20.00;100686.03;4834973;29;20037;-74
2021/04/05 11:31:48;;;;;;;1.55;0.60;;;;;;;19.24;22.60;100684.75;4832283;29;20054;-73
2021/04/05 11:34:24;;;;;;;0.75;0.55;;;;;;;17.76;24.71;100709.19;4833938;29;20022;-73
2021/04/05 11:37:19;;;;;;;1.15;0.65;;;;;;;16.11;27.32;100703.63;4836665;29;20375;-73
2021/04/05 11:39:57;;;;;;;6.90;0.75;;;;;;;14.96;29.49;100709.81;4784142;29;20042;-75
2021/04/05 11:42:32;;;;;;;1.17;0.40;;;;;;;13.81;29.93;100729.19;4815352;29;20392;-74
2021/04/05 11:45:02;;;;;;;1.83;0.50;;;;;;;12.81;31.98;100723.25;4833979;29;20030;-73
2021/04/05 11:47:34;;;;;;;2.20;0.50;;;;;;;12.09;32.78;100742.28;4840044;29;20492;-74
2021/04/05 11:50:14;;;;;;;0.35;0.22;;;;;;;11.30;33.73;100745.69;4839236;29;20045;-72
2021/04/05 11:53:02;;;;;;;1.38;0.43;;;;;;;10.92;34.16;100765.91;4844296;29;20050;-76
2021/04/05 11:55:39;;;;;;;0.95;0.50;;;;;;;10.74;35.01;100764.38;4846040;29;20037;-74
2021/04/05 11:58:13;;;;;;;1.17;0.47;;;;;;;10.49;35.44;100757.56;4851051;29;20418;-74
2021/04/05 12:00:52;;;;;;;1.88;0.25;;;;;;;10.54;35.96;100762.25;4840171;29;20034;-72
2021/04/05 12:03:32;;;;;;;2.55;0.40;;;;;;;10.63;35.94;100779.84;4835956;29;20022;-74
2021/04/05 12:06:14;;;;;;;1.67;0.43;;;;;;;10.63;35.59;100783.41;4828098;29;20026;-75
2021/04/05 12:08:57;;;;;;;1.17;1.10;;;;;;;10.84;36.32;100775.41;4829271;29;20228;-79